sensor_id;sensor_type;location;lat;lon;timestamp;temperature;humidity
37972;DHT22;23794;48.234;8.344;2022-10-15T00:00:07;14.00;99.90
37972;DHT22;23794;48.234;8.344;2022-10-15T00:02:34;13.90;99.90
37972;DHT22;23794;48.234;8.344;2022-10-15T00:05:01;13.90;99.90
37972;DHT22;23794;48.234;8.344;2022-10-15T00:07:28;13.90;99.90
37972;DHT22;23794;48.234;8.344;2022-10-15T00:09:55;13.80;99.90
37972;DHT22;23794;48.234;8.344;2022-10-15T00:12:22;14.00;99.90
37972;DHT22;23794;48.234;8.344;2022-10-15T00:14:49;14.00;99.90
37972;DHT22;23794;48.234;8.344;2022-10-15T00:17:15;13.90;99.90
37972;DHT22;23794;48.234;8.344;2022-10-15T00:19:42;13.90;99.90
37972;DHT22;23794;48.234;8.344;2022-10-15T00:22:09;14.00;99.90
37972;DHT22;23794;48.234;8.344;2022-10-15T00:24:36;13.90;99.90
37972;DHT22;23794;48.234;8.344;2022-10-15T00:27:02;14.00;99.90
37972;DHT22;23794;48.234;8.344;2022-10-15T00:29:29;14.00;99.90
37972;DHT22;23794;48.234;8.344;2022-10-15T00:31:56;14.00;99.90
37972;DHT22;23794;48.234;8.344;2022-10-15T00:34:23;14.00;99.90
37972;DHT22;23794;48.234;8.344;2022-10-15T00:36:50;14.00;99.90
37972;DHT22;23794;48.234;8.344;2022-10-15T00:39:16;14.10;99.90
37972;DHT22;23794;48.234;8.344;2022-10-15T00:41:44;14.00;99.90
37972;DHT22;23794;48.234;8.344;2022-10-15T00:46:49;14.10;99.90
37972;DHT22;23794;48.234;8.344;2022-10-15T00:49:48;14.10;99.90
37972;DHT22;23794;48.234;8.344;2022-10-15T00:52:18;14.10;99.90
37972;DHT22;23794;48.234;8.344;2022-10-15T00:54:53;14.10;99.90
37972;DHT22;23794;48.234;8.344;2022-10-15T00:57:22;14.10;99.90
37972;DHT22;23794;48.234;8.344;2022-10-15T00:59:51;14.20;99.90
37972;DHT22;23794;48.234;8.344;2022-10-15T01:02:19;14.10;99.90
37972;DHT22;23794;48.234;8.344;2022-10-15T01:04:48;14.20;99.90
37972;DHT22;23794;48.234;8.344;2022-10-15T01:07:16;14.20;99.90
37972;DHT22;23794;48.234;8.344;2022-10-15T01:09:48;14.20;99.90
37972;DHT22;23794;48.234;8.344;2022-10-15T01:15:25;14.20;99.90
37972;DHT22;23794;48.234;8.344;2022-10-15T01:26:35;14.20;99.90
37972;DHT22;23794;48.234;8.344;2022-10-15T01:32:07;14.10;99.90
37972;DHT22;23794;48.234;8.344;2022-10-15T01:34:53;14.20;99.90
37972;DHT22;23794;48.234;8.344;2022-10-15T01:37:36;14.30;99.90
37972;DHT22;23794;48.234;8.344;2022-10-15T01:40:14;14.20;99.90
37972;DHT22;23794;48.234;8.344;2022-10-15T01:42:56;14.20;99.90
37972;DHT22;23794;48.234;8.344;2022-10-15T01:45:37;14.30;99.90
37972;DHT22;23794;48.234;8.344;2022-10-15T01:48:16;14.30;99.90
37972;DHT22;23794;48.234;8.344;2022-10-15T01:50:47;14.30;99.90
37972;DHT22;23794;48.234;8.344;2022-10-15T01:53:21;14.30;99.90
37972;DHT22;23794;48.234;8.344;2022-10-15T01:55:55;14.30;99.90
37972;DHT22;23794;48.234;8.344;2022-10-15T01:58:23;14.20;99.90
37972;DHT22;23794;48.234;8.344;2022-10-15T02:00:53;14.20;99.90
37972;DHT22;23794;48.234;8.344;2022-10-15T02:03:21;14.20;99.90
37972;DHT22;23794;48.234;8.344;2022-10-15T02:05:54;14.20;99.90
37972;DHT22;23794;48.234;8.344;2022-10-15T02:08:41;14.20;99.90
37972;DHT22;23794;48.234;8.344;2022-10-15T02:11:15;14.20;99.90
37972;DHT22;23794;48.234;8.344;2022-10-15T02:14:07;14.20;99.90
37972;DHT22;23794;48.234;8.344;2022-10-15T02:16:40;14.10;99.90
37972;DHT22;23794;48.234;8.344;2022-10-15T02:19:17;14.10;99.90
37972;DHT22;23794;48.234;8.344;2022-10-15T02:21:47;14.10;99.90
37972;DHT22;23794;48.234;8.344;2022-10-15T02:24:36;14.10;99.90
37972;DHT22;23794;48.234;8.344;2022-10-15T02:27:06;14.10;99.90
37972;DHT22;23794;48.234;8.344;2022-10-15T02:29:36;14.10;99.90
37972;DHT22;23794;48.234;8.344;2022-10-15T02:32:05;14.10;99.90
37972;DHT22;23794;48.234;8.344;2022-10-15T02:34:33;14.00;99.90
37972;DHT22;23794;48.234;8.344;2022-10-15T02:37:03;13.90;99.90
37972;DHT22;23794;48.234;8.344;2022-10-15T02:39:32;13.90;99.90
37972;DHT22;23794;48.234;8.344;2022-10-15T02:42:00;13.90;99.90
37972;DHT22;23794;48.234;8.344;2022-10-15T02:44:26;13.90;99.90
37972;DHT22;23794;48.234;8.344;2022-10-15T02:46:55;13.90;99.90
37972;DHT22;23794;48.234;8.344;2022-10-15T02:49:22;13.90;99.90
37972;DHT22;23794;48.234;8.344;2022-10-15T02:51:50;13.90;99.90
37972;DHT22;23794;48.234;8.344;2022-10-15T02:54:16;13.90;99.90
37972;DHT22;23794;48.234;8.344;2022-10-15T02:56:46;13.90;99.90
37972;DHT22;23794;48.234;8.344;2022-10-15T02:59:14;13.80;99.90
37972;DHT22;23794;48.234;8.344;2022-10-15T03:01:40;13.80;99.90
37972;DHT22;23794;48.234;8.344;2022-10-15T03:04:08;13.90;99.90
37972;DHT22;23794;48.234;8.344;2022-10-15T03:06:36;13.90;99.90
37972;DHT22;23794;48.234;8.344;2022-10-15T03:09:03;13.90;99.90
37972;DHT22;23794;48.234;8.344;2022-10-15T03:11:31;13.90;99.90
37972;DHT22;23794;48.234;8.344;2022-10-15T03:13:58;13.90;99.90
37972;DHT22;23794;48.234;8.344;2022-10-15T03:16:25;13.80;99.90
37972;DHT22;23794;48.234;8.344;2022-10-15T03:18:51;13.80;99.90
37972;DHT22;23794;48.234;8.344;2022-10-15T03:21:20;13.90;99.90
37972;DHT22;23794;48.234;8.344;2022-10-15T03:23:46;13.80;99.90
37972;DHT22;23794;48.234;8.344;2022-10-15T03:26:18;13.80;99.90
37972;DHT22;23794;48.234;8.344;2022-10-15T03:28:44;13.80;99.90
37972;DHT22;23794;48.234;8.344;2022-10-15T03:31:19;13.90;99.90
37972;DHT22;23794;48.234;8.344;2022-10-15T03:33:47;13.80;99.90
37972;DHT22;23794;48.234;8.344;2022-10-15T03:36:16;13.80;99.90
37972;DHT22;23794;48.234;8.344;2022-10-15T03:38:43;13.90;99.90
37972;DHT22;23794;48.234;8.344;2022-10-15T03:41:12;13.80;99.90
37972;DHT22;23794;48.234;8.344;2022-10-15T03:43:40;13.80;99.90
37972;DHT22;23794;48.234;8.344;2022-10-15T03:46:10;13.80;99.90
37972;DHT22;23794;48.234;8.344;2022-10-15T03:48:41;13.80;99.90
37972;DHT22;23794;48.234;8.344;2022-10-15T03:51:11;13.80;99.90
37972;DHT22;23794;48.234;8.344;2022-10-15T03:53:43;13.90;99.90
37972;DHT22;23794;48.234;8.344;2022-10-15T03:56:10;13.80;99.90
37972;DHT22;23794;48.234;8.344;2022-10-15T03:58:39;13.80;99.90
37972;DHT22;23794;48.234;8.344;2022-10-15T04:01:13;13.70;99.90
37972;DHT22;23794;48.234;8.344;2022-10-15T04:03:41;13.80;99.90
37972;DHT22;23794;48.234;8.344;2022-10-15T04:06:08;13.70;99.90
37972;DHT22;23794;48.234;8.344;2022-10-15T04:08:36;13.80;99.90
37972;DHT22;23794;48.234;8.344;2022-10-15T04:11:17;13.70;99.90
37972;DHT22;23794;48.234;8.344;2022-10-15T04:13:51;13.70;99.90
37972;DHT22;23794;48.234;8.344;2022-10-15T04:16:18;13.70;99.90
37972;DHT22;23794;48.234;8.344;2022-10-15T04:18:45;13.70;99.90
37972;DHT22;23794;48.234;8.344;2022-10-15T04:21:12;13.80;99.90
37972;DHT22;23794;48.234;8.344;2022-10-15T04:23:41;13.80;99.90
37972;DHT22;23794;48.234;8.344;2022-10-15T04:26:23;13.80;99.90
37972;DHT22;23794;48.234;8.344;2022-10-15T04:28:50;13.80;99.90
37972;DHT22;23794;48.234;8.344;2022-10-15T04:31:19;13.80;99.90
37972;DHT22;23794;48.234;8.344;2022-10-15T04:33:47;13.70;99.90
37972;DHT22;23794;48.234;8.344;2022-10-15T04:36:15;13.70;99.90
37972;DHT22;23794;48.234;8.344;2022-10-15T04:38:51;13.70;99.90
37972;DHT22;23794;48.234;8.344;2022-10-15T04:41:25;13.60;99.90
37972;DHT22;23794;48.234;8.344;2022-10-15T04:43:58;13.80;99.90
37972;DHT22;23794;48.234;8.344;2022-10-15T04:46:27;13.80;99.90
37972;DHT22;23794;48.234;8.344;2022-10-15T04:48:57;13.80;99.90
37972;DHT22;23794;48.234;8.344;2022-10-15T04:51:25;13.80;99.90
37972;DHT22;23794;48.234;8.344;2022-10-15T04:54:18;13.80;99.90
37972;DHT22;23794;48.234;8.344;2022-10-15T04:56:55;13.80;99.90
37972;DHT22;23794;48.234;8.344;2022-10-15T04:59:22;13.80;99.90
37972;DHT22;23794;48.234;8.344;2022-10-15T05:02:21;13.80;99.90
37972;DHT22;23794;48.234;8.344;2022-10-15T05:04:53;13.80;99.90
37972;DHT22;23794;48.234;8.344;2022-10-15T05:07:20;13.80;99.90
37972;DHT22;23794;48.234;8.344;2022-10-15T05:09:48;13.80;99.90
37972;DHT22;23794;48.234;8.344;2022-10-15T05:12:15;13.80;99.90
37972;DHT22;23794;48.234;8.344;2022-10-15T05:14:42;13.80;99.90
37972;DHT22;23794;48.234;8.344;2022-10-15T05:17:24;13.70;99.90
37972;DHT22;23794;48.234;8.344;2022-10-15T05:19:56;13.80;99.90
37972;DHT22;23794;48.234;8.344;2022-10-15T05:22:26;13.90;99.90
37972;DHT22;23794;48.234;8.344;2022-10-15T05:24:56;13.80;99.90
37972;DHT22;23794;48.234;8.344;2022-10-15T05:27:26;13.90;99.90
37972;DHT22;23794;48.234;8.344;2022-10-15T05:29:53;13.90;99.90
37972;DHT22;23794;48.234;8.344;2022-10-15T05:32:19;14.00;99.90
37972;DHT22;23794;48.234;8.344;2022-10-15T05:34:49;13.90;99.90
37972;DHT22;23794;48.234;8.344;2022-10-15T05:37:16;13.90;99.90
37972;DHT22;23794;48.234;8.344;2022-10-15T05:39:43;13.90;99.90
37972;DHT22;23794;48.234;8.344;2022-10-15T05:42:10;14.00;99.90
37972;DHT22;23794;48.234;8.344;2022-10-15T05:44:41;14.00;99.90
37972;DHT22;23794;48.234;8.344;2022-10-15T05:47:08;13.90;99.90
37972;DHT22;23794;48.234;8.344;2022-10-15T05:49:38;14.00;99.90
37972;DHT22;23794;48.234;8.344;2022-10-15T05:52:11;13.90;99.90
37972;DHT22;23794;48.234;8.344;2022-10-15T05:54:56;14.00;99.90
37972;DHT22;23794;48.234;8.344;2022-10-15T05:57:23;14.00;99.90
37972;DHT22;23794;48.234;8.344;2022-10-15T05:59:50;13.90;99.90
37972;DHT22;23794;48.234;8.344;2022-10-15T06:02:17;13.80;99.90
37972;DHT22;23794;48.234;8.344;2022-10-15T06:04:43;13.80;99.90
37972;DHT22;23794;48.234;8.344;2022-10-15T06:07:12;13.80;99.90
37972;DHT22;23794;48.234;8.344;2022-10-15T06:09:39;13.80;99.90
37972;DHT22;23794;48.234;8.344;2022-10-15T06:12:05;13.90;99.90
37972;DHT22;23794;48.234;8.344;2022-10-15T06:14:32;14.00;99.90
37972;DHT22;23794;48.234;8.344;2022-10-15T06:16:59;14.00;99.90
37972;DHT22;23794;48.234;8.344;2022-10-15T06:19:26;14.00;99.90
37972;DHT22;23794;48.234;8.344;2022-10-15T06:21:53;14.00;99.90
37972;DHT22;23794;48.234;8.344;2022-10-15T06:24:19;14.00;99.90
37972;DHT22;23794;48.234;8.344;2022-10-15T06:26:46;13.90;99.90
37972;DHT22;23794;48.234;8.344;2022-10-15T06:29:13;13.80;99.90
37972;DHT22;23794;48.234;8.344;2022-10-15T06:31:40;13.90;99.90
37972;DHT22;23794;48.234;8.344;2022-10-15T06:34:07;13.90;99.90
37972;DHT22;23794;48.234;8.344;2022-10-15T06:36:34;13.90;99.90
37972;DHT22;23794;48.234;8.344;2022-10-15T06:39:00;13.80;99.90
37972;DHT22;23794;48.234;8.344;2022-10-15T06:41:27;13.90;99.90
37972;DHT22;23794;48.234;8.344;2022-10-15T06:43:54;13.90;99.90
37972;DHT22;23794;48.234;8.344;2022-10-15T06:46:20;13.90;99.90
37972;DHT22;23794;48.234;8.344;2022-10-15T06:48:47;13.90;99.90
37972;DHT22;23794;48.234;8.344;2022-10-15T06:51:15;13.90;99.90
37972;DHT22;23794;48.234;8.344;2022-10-15T06:53:48;13.90;99.90
37972;DHT22;23794;48.234;8.344;2022-10-15T06:56:15;14.00;99.90
37972;DHT22;23794;48.234;8.344;2022-10-15T06:58:43;14.00;99.90
37972;DHT22;23794;48.234;8.344;2022-10-15T07:01:10;13.80;99.90
37972;DHT22;23794;48.234;8.344;2022-10-15T07:03:37;13.90;99.90
37972;DHT22;23794;48.234;8.344;2022-10-15T07:06:06;13.90;99.90
37972;DHT22;23794;48.234;8.344;2022-10-15T07:08:34;13.90;99.90
37972;DHT22;23794;48.234;8.344;2022-10-15T07:11:03;13.90;99.90
37972;DHT22;23794;48.234;8.344;2022-10-15T07:13:31;14.00;99.90
37972;DHT22;23794;48.234;8.344;2022-10-15T07:16:10;14.00;99.90
37972;DHT22;23794;48.234;8.344;2022-10-15T07:18:38;14.10;99.90
37972;DHT22;23794;48.234;8.344;2022-10-15T07:21:06;14.10;99.90
37972;DHT22;23794;48.234;8.344;2022-10-15T07:23:33;14.20;99.90
37972;DHT22;23794;48.234;8.344;2022-10-15T07:26:00;14.30;99.90
37972;DHT22;23794;48.234;8.344;2022-10-15T07:28:27;14.40;99.90
37972;DHT22;23794;48.234;8.344;2022-10-15T07:30:58;14.40;99.90
37972;DHT22;23794;48.234;8.344;2022-10-15T07:33:25;14.50;99.90
37972;DHT22;23794;48.234;8.344;2022-10-15T07:35:58;14.50;99.90
37972;DHT22;23794;48.234;8.344;2022-10-15T07:38:24;14.50;99.90
37972;DHT22;23794;48.234;8.344;2022-10-15T07:40:51;14.50;99.90
37972;DHT22;23794;48.234;8.344;2022-10-15T07:43:18;14.40;99.90
37972;DHT22;23794;48.234;8.344;2022-10-15T07:45:47;14.40;99.90
37972;DHT22;23794;48.234;8.344;2022-10-15T07:48:15;14.40;99.90
37972;DHT22;23794;48.234;8.344;2022-10-15T07:50:41;14.40;99.90
37972;DHT22;23794;48.234;8.344;2022-10-15T07:53:09;14.40;99.90
37972;DHT22;23794;48.234;8.344;2022-10-15T07:55:35;14.30;99.90
37972;DHT22;23794;48.234;8.344;2022-10-15T07:58:03;14.40;99.90
37972;DHT22;23794;48.234;8.344;2022-10-15T08:00:32;14.40;99.90
37972;DHT22;23794;48.234;8.344;2022-10-15T08:03:04;14.40;99.90
37972;DHT22;23794;48.234;8.344;2022-10-15T08:05:31;14.30;99.90
37972;DHT22;23794;48.234;8.344;2022-10-15T08:07:58;14.30;99.90
37972;DHT22;23794;48.234;8.344;2022-10-15T08:10:26;14.20;99.90
37972;DHT22;23794;48.234;8.344;2022-10-15T08:12:53;14.20;99.90
37972;DHT22;23794;48.234;8.344;2022-10-15T08:15:19;14.20;99.90
37972;DHT22;23794;48.234;8.344;2022-10-15T08:17:46;14.10;99.90
37972;DHT22;23794;48.234;8.344;2022-10-15T08:20:14;14.10;99.90
37972;DHT22;23794;48.234;8.344;2022-10-15T08:22:40;14.10;99.90
37972;DHT22;23794;48.234;8.344;2022-10-15T08:25:07;14.20;99.90
37972;DHT22;23794;48.234;8.344;2022-10-15T08:27:34;14.20;99.90
37972;DHT22;23794;48.234;8.344;2022-10-15T08:30:03;14.20;99.90
37972;DHT22;23794;48.234;8.344;2022-10-15T08:32:30;14.30;99.90
37972;DHT22;23794;48.234;8.344;2022-10-15T08:34:57;14.20;99.90
37972;DHT22;23794;48.234;8.344;2022-10-15T08:37:23;14.30;99.90
37972;DHT22;23794;48.234;8.344;2022-10-15T08:39:50;14.30;99.90
37972;DHT22;23794;48.234;8.344;2022-10-15T08:42:20;14.40;99.90
37972;DHT22;23794;48.234;8.344;2022-10-15T08:45:01;14.30;99.90
37972;DHT22;23794;48.234;8.344;2022-10-15T08:47:35;14.30;99.90
37972;DHT22;23794;48.234;8.344;2022-10-15T08:52:48;14.40;99.90
37972;DHT22;23794;48.234;8.344;2022-10-15T08:55:18;14.40;99.90
37972;DHT22;23794;48.234;8.344;2022-10-15T08:57:52;14.60;99.90
37972;DHT22;23794;48.234;8.344;2022-10-15T09:00:34;14.70;99.90
37972;DHT22;23794;48.234;8.344;2022-10-15T09:03:08;14.70;99.90
37972;DHT22;23794;48.234;8.344;2022-10-15T09:06:02;14.80;99.90
37972;DHT22;23794;48.234;8.344;2022-10-15T09:11:52;14.90;99.90
37972;DHT22;23794;48.234;8.344;2022-10-15T09:14:28;15.00;99.90
37972;DHT22;23794;48.234;8.344;2022-10-15T09:17:00;15.00;99.90
37972;DHT22;23794;48.234;8.344;2022-10-15T09:19:28;15.00;99.90
37972;DHT22;23794;48.234;8.344;2022-10-15T09:21:55;15.10;99.90
37972;DHT22;23794;48.234;8.344;2022-10-15T09:24:24;15.30;99.90
37972;DHT22;23794;48.234;8.344;2022-10-15T09:38:19;15.60;99.90
37972;DHT22;23794;48.234;8.344;2022-10-15T09:43:56;15.60;99.90
37972;DHT22;23794;48.234;8.344;2022-10-15T09:46:27;15.40;99.90
37972;DHT22;23794;48.234;8.344;2022-10-15T09:49:11;15.30;99.90
37972;DHT22;23794;48.234;8.344;2022-10-15T09:51:57;15.20;99.90
37972;DHT22;23794;48.234;8.344;2022-10-15T09:54:46;15.20;99.90
37972;DHT22;23794;48.234;8.344;2022-10-15T09:57:16;15.20;99.90
37972;DHT22;23794;48.234;8.344;2022-10-15T09:59:59;15.30;99.90
37972;DHT22;23794;48.234;8.344;2022-10-15T10:02:28;15.30;99.90
37972;DHT22;23794;48.234;8.344;2022-10-15T10:04:55;15.40;99.90
37972;DHT22;23794;48.234;8.344;2022-10-15T10:07:36;15.30;99.90
37972;DHT22;23794;48.234;8.344;2022-10-15T10:10:06;15.30;99.90
37972;DHT22;23794;48.234;8.344;2022-10-15T10:12:47;15.50;99.90
37972;DHT22;23794;48.234;8.344;2022-10-15T10:15:34;15.60;99.90
37972;DHT22;23794;48.234;8.344;2022-10-15T10:18:02;15.70;99.90
37972;DHT22;23794;48.234;8.344;2022-10-15T10:20:32;15.80;99.90
37972;DHT22;23794;48.234;8.344;2022-10-15T10:23:02;15.80;99.90
37972;DHT22;23794;48.234;8.344;2022-10-15T10:25:47;15.70;99.90
37972;DHT22;23794;48.234;8.344;2022-10-15T10:28:31;15.70;99.90
37972;DHT22;23794;48.234;8.344;2022-10-15T10:31:04;15.50;99.90
37972;DHT22;23794;48.234;8.344;2022-10-15T10:33:50;15.30;99.90
37972;DHT22;23794;48.234;8.344;2022-10-15T10:36:26;15.20;99.90
37972;DHT22;23794;48.234;8.344;2022-10-15T10:39:24;15.00;99.90
37972;DHT22;23794;48.234;8.344;2022-10-15T10:41:49;15.10;99.90
37972;DHT22;23794;48.234;8.344;2022-10-15T10:55:15;15.20;99.90
37972;DHT22;23794;48.234;8.344;2022-10-15T10:57:44;15.20;99.90
37972;DHT22;23794;48.234;8.344;2022-10-15T11:00:17;15.20;99.90
37972;DHT22;23794;48.234;8.344;2022-10-15T11:02:48;15.20;99.90
37972;DHT22;23794;48.234;8.344;2022-10-15T11:05:24;15.20;99.90
37972;DHT22;23794;48.234;8.344;2022-10-15T11:10:59;15.30;99.90
37972;DHT22;23794;48.234;8.344;2022-10-15T11:16:35;15.50;99.90
37972;DHT22;23794;48.234;8.344;2022-10-15T11:30:01;16.20;99.90
37972;DHT22;23794;48.234;8.344;2022-10-15T11:35:49;16.40;99.90
37972;DHT22;23794;48.234;8.344;2022-10-15T11:38:32;16.90;99.90
37972;DHT22;23794;48.234;8.344;2022-10-15T11:41:19;17.30;99.90
37972;DHT22;23794;48.234;8.344;2022-10-15T11:49:39;17.70;99.90
37972;DHT22;23794;48.234;8.344;2022-10-15T11:54:44;17.50;99.90
37972;DHT22;23794;48.234;8.344;2022-10-15T11:57:16;17.20;99.90
37972;DHT22;23794;48.234;8.344;2022-10-15T11:59:54;17.00;99.90
37972;DHT22;23794;48.234;8.344;2022-10-15T12:02:33;16.80;99.90
37972;DHT22;23794;48.234;8.344;2022-10-15T12:05:16;16.70;99.90
37972;DHT22;23794;48.234;8.344;2022-10-15T12:07:48;16.50;99.90
37972;DHT22;23794;48.234;8.344;2022-10-15T12:13:10;16.10;99.90
37972;DHT22;23794;48.234;8.344;2022-10-15T12:15:47;16.00;99.90
37972;DHT22;23794;48.234;8.344;2022-10-15T12:23:54;15.70;99.90
37972;DHT22;23794;48.234;8.344;2022-10-15T12:28:57;15.60;99.90
37972;DHT22;23794;48.234;8.344;2022-10-15T12:31:54;15.60;99.90
37972;DHT22;23794;48.234;8.344;2022-10-15T12:34:35;15.70;99.90
37972;DHT22;23794;48.234;8.344;2022-10-15T12:37:15;15.70;99.90
37972;DHT22;23794;48.234;8.344;2022-10-15T12:39:43;15.80;99.90
37972;DHT22;23794;48.234;8.344;2022-10-15T12:42:22;15.80;99.90
37972;DHT22;23794;48.234;8.344;2022-10-15T12:44:51;15.80;99.90
37972;DHT22;23794;48.234;8.344;2022-10-15T12:52:57;16.10;99.90
37972;DHT22;23794;48.234;8.344;2022-10-15T12:55:32;16.30;99.90
37972;DHT22;23794;48.234;8.344;2022-10-15T12:58:02;16.30;99.90
37972;DHT22;23794;48.234;8.344;2022-10-15T13:00:36;16.30;99.90
37972;DHT22;23794;48.234;8.344;2022-10-15T13:03:16;16.20;99.90
37972;DHT22;23794;48.234;8.344;2022-10-15T13:05:44;16.10;99.90
37972;DHT22;23794;48.234;8.344;2022-10-15T13:08:21;16.00;99.90
37972;DHT22;23794;48.234;8.344;2022-10-15T13:10:53;15.80;99.90
37972;DHT22;23794;48.234;8.344;2022-10-15T13:13:23;15.70;99.90
37972;DHT22;23794;48.234;8.344;2022-10-15T13:15:59;15.70;99.90
37972;DHT22;23794;48.234;8.344;2022-10-15T13:18:28;15.70;99.90
37972;DHT22;23794;48.234;8.344;2022-10-15T13:20:56;15.50;99.90
37972;DHT22;23794;48.234;8.344;2022-10-15T13:23:29;15.50;99.90
37972;DHT22;23794;48.234;8.344;2022-10-15T13:28:43;15.70;99.90
37972;DHT22;23794;48.234;8.344;2022-10-15T13:31:20;15.80;99.90
37972;DHT22;23794;48.234;8.344;2022-10-15T13:34:23;15.80;99.90
37972;DHT22;23794;48.234;8.344;2022-10-15T13:36:51;15.80;99.90
37972;DHT22;23794;48.234;8.344;2022-10-15T13:42:15;16.00;99.90
37972;DHT22;23794;48.234;8.344;2022-10-15T13:44:54;16.00;99.90
37972;DHT22;23794;48.234;8.344;2022-10-15T13:55:37;16.20;99.90
37972;DHT22;23794;48.234;8.344;2022-10-15T13:58:18;16.20;99.90
37972;DHT22;23794;48.234;8.344;2022-10-15T14:03:30;16.10;99.90
37972;DHT22;23794;48.234;8.344;2022-10-15T14:06:08;16.10;99.90
37972;DHT22;23794;48.234;8.344;2022-10-15T14:08:37;16.20;99.90
37972;DHT22;23794;48.234;8.344;2022-10-15T14:11:03;16.20;99.90
37972;DHT22;23794;48.234;8.344;2022-10-15T14:13:30;16.20;99.90
37972;DHT22;23794;48.234;8.344;2022-10-15T14:18:45;16.00;99.90
37972;DHT22;23794;48.234;8.344;2022-10-15T14:21:18;16.10;99.90
37972;DHT22;23794;48.234;8.344;2022-10-15T14:23:46;16.00;99.90
37972;DHT22;23794;48.234;8.344;2022-10-15T14:26:14;16.00;99.90
37972;DHT22;23794;48.234;8.344;2022-10-15T14:28:49;16.00;99.90
37972;DHT22;23794;48.234;8.344;2022-10-15T14:34:02;16.20;99.90
37972;DHT22;23794;48.234;8.344;2022-10-15T14:36:30;16.10;99.90
37972;DHT22;23794;48.234;8.344;2022-10-15T14:42:27;16.10;99.90
37972;DHT22;23794;48.234;8.344;2022-10-15T14:44:56;16.10;99.90
37972;DHT22;23794;48.234;8.344;2022-10-15T14:47:35;16.10;99.90
37972;DHT22;23794;48.234;8.344;2022-10-15T14:50:02;16.10;99.90
37972;DHT22;23794;48.234;8.344;2022-10-15T14:52:32;16.00;99.90
37972;DHT22;23794;48.234;8.344;2022-10-15T14:55:12;16.00;99.90
37972;DHT22;23794;48.234;8.344;2022-10-15T14:57:42;15.90;99.90
37972;DHT22;23794;48.234;8.344;2022-10-15T15:02:41;15.90;99.90
37972;DHT22;23794;48.234;8.344;2022-10-15T15:07:39;15.90;99.90
37972;DHT22;23794;48.234;8.344;2022-10-15T15:10:07;15.90;99.90
37972;DHT22;23794;48.234;8.344;2022-10-15T15:12:37;15.70;99.90
37972;DHT22;23794;48.234;8.344;2022-10-15T15:15:12;15.60;99.90
37972;DHT22;23794;48.234;8.344;2022-10-15T15:17:39;15.60;99.90
37972;DHT22;23794;48.234;8.344;2022-10-15T15:20:06;15.60;99.90
37972;DHT22;23794;48.234;8.344;2022-10-15T15:22:34;15.50;99.90
37972;DHT22;23794;48.234;8.344;2022-10-15T15:25:12;15.70;99.90
37972;DHT22;23794;48.234;8.344;2022-10-15T15:27:39;15.70;99.90
37972;DHT22;23794;48.234;8.344;2022-10-15T15:30:12;15.70;99.90
37972;DHT22;23794;48.234;8.344;2022-10-15T15:32:39;15.60;99.90
37972;DHT22;23794;48.234;8.344;2022-10-15T15:35:18;15.40;99.90
37972;DHT22;23794;48.234;8.344;2022-10-15T15:37:50;15.30;99.90
37972;DHT22;23794;48.234;8.344;2022-10-15T15:40:17;15.20;99.90
37972;DHT22;23794;48.234;8.344;2022-10-15T15:42:45;15.30;99.90
37972;DHT22;23794;48.234;8.344;2022-10-15T15:45:25;15.20;99.90
37972;DHT22;23794;48.234;8.344;2022-10-15T15:47:52;15.30;99.90
37972;DHT22;23794;48.234;8.344;2022-10-15T15:50:20;15.30;99.90
37972;DHT22;23794;48.234;8.344;2022-10-15T15:52:47;15.30;99.90
37972;DHT22;23794;48.234;8.344;2022-10-15T15:55:14;15.30;99.90
37972;DHT22;23794;48.234;8.344;2022-10-15T15:57:41;15.30;99.90
37972;DHT22;23794;48.234;8.344;2022-10-15T16:00:09;15.20;99.90
37972;DHT22;23794;48.234;8.344;2022-10-15T16:02:36;15.20;99.90
37972;DHT22;23794;48.234;8.344;2022-10-15T16:05:04;15.10;99.90
37972;DHT22;23794;48.234;8.344;2022-10-15T16:07:32;15.10;99.90
37972;DHT22;23794;48.234;8.344;2022-10-15T16:09:59;15.10;99.90
37972;DHT22;23794;48.234;8.344;2022-10-15T16:12:26;15.10;99.90
37972;DHT22;23794;48.234;8.344;2022-10-15T16:14:53;15.00;99.90
37972;DHT22;23794;48.234;8.344;2022-10-15T16:17:21;14.80;99.90
37972;DHT22;23794;48.234;8.344;2022-10-15T16:19:50;14.80;99.90
37972;DHT22;23794;48.234;8.344;2022-10-15T16:22:16;14.80;99.90
37972;DHT22;23794;48.234;8.344;2022-10-15T16:24:43;14.70;99.90
37972;DHT22;23794;48.234;8.344;2022-10-15T16:27:10;14.60;99.90
37972;DHT22;23794;48.234;8.344;2022-10-15T16:29:37;14.60;99.90
37972;DHT22;23794;48.234;8.344;2022-10-15T16:32:04;14.60;99.90
37972;DHT22;23794;48.234;8.344;2022-10-15T16:34:31;14.60;99.90
37972;DHT22;23794;48.234;8.344;2022-10-15T16:36:58;14.50;99.90
37972;DHT22;23794;48.234;8.344;2022-10-15T16:39:24;14.50;99.90
37972;DHT22;23794;48.234;8.344;2022-10-15T16:41:51;14.60;99.90
37972;DHT22;23794;48.234;8.344;2022-10-15T16:44:18;14.60;99.90
37972;DHT22;23794;48.234;8.344;2022-10-15T16:46:45;14.70;99.90
37972;DHT22;23794;48.234;8.344;2022-10-15T16:49:12;14.70;99.90
37972;DHT22;23794;48.234;8.344;2022-10-15T16:51:38;14.70;99.90
37972;DHT22;23794;48.234;8.344;2022-10-15T16:54:13;14.80;99.90
37972;DHT22;23794;48.234;8.344;2022-10-15T16:56:41;14.80;99.90
37972;DHT22;23794;48.234;8.344;2022-10-15T16:59:08;14.80;99.90
37972;DHT22;23794;48.234;8.344;2022-10-15T17:01:35;14.80;99.90
37972;DHT22;23794;48.234;8.344;2022-10-15T17:04:02;14.70;99.90
37972;DHT22;23794;48.234;8.344;2022-10-15T17:06:30;14.60;99.90
37972;DHT22;23794;48.234;8.344;2022-10-15T17:08:58;14.60;99.90
37972;DHT22;23794;48.234;8.344;2022-10-15T17:11:31;14.50;99.90
37972;DHT22;23794;48.234;8.344;2022-10-15T17:14:00;14.60;99.90
37972;DHT22;23794;48.234;8.344;2022-10-15T17:16:35;14.70;99.90
37972;DHT22;23794;48.234;8.344;2022-10-15T17:19:02;14.70;99.90
37972;DHT22;23794;48.234;8.344;2022-10-15T17:21:29;14.60;99.90
37972;DHT22;23794;48.234;8.344;2022-10-15T17:23:58;14.70;99.90
37972;DHT22;23794;48.234;8.344;2022-10-15T17:26:28;14.70;99.90
37972;DHT22;23794;48.234;8.344;2022-10-15T17:28:55;14.80;99.90
37972;DHT22;23794;48.234;8.344;2022-10-15T17:31:24;14.70;99.90
37972;DHT22;23794;48.234;8.344;2022-10-15T17:34:11;14.80;99.90
37972;DHT22;23794;48.234;8.344;2022-10-15T17:36:44;14.70;99.90
37972;DHT22;23794;48.234;8.344;2022-10-15T17:39:15;14.60;99.90
37972;DHT22;23794;48.234;8.344;2022-10-15T17:41:43;14.50;99.90
37972;DHT22;23794;48.234;8.344;2022-10-15T17:44:11;14.50;99.90
37972;DHT22;23794;48.234;8.344;2022-10-15T17:46:39;14.60;99.90
37972;DHT22;23794;48.234;8.344;2022-10-15T17:49:06;14.50;99.90
37972;DHT22;23794;48.234;8.344;2022-10-15T17:51:35;14.50;99.90
37972;DHT22;23794;48.234;8.344;2022-10-15T17:54:04;14.60;99.90
37972;DHT22;23794;48.234;8.344;2022-10-15T17:56:32;14.50;99.90